createdAt,value
2019-05-25T00:00:18.560Z,98026.70
2019-05-25T00:01:22.464Z,98027.72
2019-05-25T00:02:24.905Z,98025.36
2019-05-25T00:03:26.962Z,98022.94
2019-05-25T00:04:30.684Z,98021.91
2019-05-25T00:05:33.280Z,98023.11
2019-05-25T00:06:36.138Z,98026.06
2019-05-25T00:07:39.727Z,98022.27
2019-05-25T00:08:43.547Z,98026.70
2019-05-25T00:09:48.566Z,98019.97
2019-05-25T00:10:52.764Z,98019.97
2019-05-25T00:11:55.440Z,98019.49
2019-05-25T00:12:58.588Z,98011.64
2019-05-25T00:14:01.174Z,98020.02
2019-05-25T00:15:06.845Z,98017.02
2019-05-25T00:16:08.868Z,98012.77
2019-05-25T00:17:11.462Z,98018.36
2019-05-25T00:18:14.021Z,98011.61
2019-05-25T00:19:16.508Z,98014.70
2019-05-25T00:20:19.232Z,98014.70
2019-05-25T00:21:21.676Z,98006.28
2019-05-25T00:22:24.451Z,98009.92
2019-05-25T00:23:27.491Z,98006.30
2019-05-25T00:24:30.220Z,98013.25
2019-05-25T00:25:32.818Z,98009.16
2019-05-25T00:26:35.380Z,98014.38
2019-05-25T00:27:38.625Z,98007.46
2019-05-25T00:28:40.434Z,98012.27
2019-05-25T00:29:43.456Z,98008.00
2019-05-25T00:30:46.146Z,98003.05
2019-05-25T00:31:48.856Z,98010.94
2019-05-25T00:32:51.806Z,98006.03
2019-05-25T00:33:54.624Z,98006.66
2019-05-25T00:34:59.239Z,98004.87
2019-05-25T00:36:01.837Z,98000.09
2019-05-25T00:37:04.167Z,98004.00
2019-05-25T00:38:06.565Z,98010.13
2019-05-25T00:39:09.300Z,98004.67
2019-05-25T00:40:12.069Z,97995.15
2019-05-25T00:41:14.823Z,98005.20
2019-05-25T00:42:16.816Z,98001.72
2019-05-25T00:43:19.593Z,97998.77
2019-05-25T00:44:22.403Z,98001.73
2019-05-25T00:45:24.880Z,98002.38
2019-05-25T00:46:27.072Z,98002.41
2019-05-25T00:47:29.613Z,98005.38
2019-05-25T00:48:31.889Z,98000.41
2019-05-25T00:49:34.321Z,98001.40
2019-05-25T00:50:37.313Z,97994.96
2019-05-25T00:51:39.423Z,98001.09
2019-05-25T00:52:41.728Z,97995.97
2019-05-25T00:53:44.599Z,97993.83
2019-05-25T00:54:46.391Z,97996.77
2019-05-25T00:55:48.775Z,98000.56
2019-05-25T00:56:51.765Z,97998.44
2019-05-25T00:57:53.477Z,98002.07
2019-05-25T00:58:58.149Z,98001.41
2019-05-25T01:00:00.753Z,97998.06
2019-05-25T01:01:04.539Z,98007.33
2019-05-25T01:02:08.092Z,97997.79
2019-05-25T01:03:10.992Z,98000.09
2019-05-25T01:04:14.559Z,98000.42
2019-05-25T01:05:17.119Z,97990.48
2019-05-25T01:06:19.591Z,98000.26
2019-05-25T01:07:22.251Z,98003.37
2019-05-25T01:08:24.766Z,97994.27
2019-05-25T01:09:26.902Z,98000.03
2019-05-25T01:10:29.221Z,98001.38
2019-05-25T01:11:31.645Z,97995.59
2019-05-25T01:12:33.484Z,98001.73
2019-05-25T01:13:35.925Z,98000.41
2019-05-25T01:14:39.949Z,98004.20
2019-05-25T01:15:42.534Z,97998.61
2019-05-25T01:16:45.304Z,98002.40
2019-05-25T01:17:47.866Z,98004.71
2019-05-25T01:18:52.370Z,98002.68
2019-05-25T01:19:54.731Z,98000.55
2019-05-25T01:20:57.310Z,98004.52
2019-05-25T01:21:59.936Z,98002.86
2019-05-25T01:23:02.976Z,98003.19
2019-05-25T01:24:05.530Z,98002.86
2019-05-25T01:25:08.126Z,98007.83
2019-05-25T01:26:11.283Z,98005.82
2019-05-25T01:27:13.900Z,98007.28
2019-05-25T01:28:15.807Z,98003.52
2019-05-25T01:29:18.100Z,98005.32
2019-05-25T01:30:20.603Z,98004.98
2019-05-25T01:31:23.053Z,98003.69
2019-05-25T01:32:26.088Z,98008.28
2019-05-25T01:33:28.744Z,98006.80
2019-05-25T01:34:31.637Z,97996.36
2019-05-25T01:35:34.146Z,97996.71
2019-05-25T01:36:36.574Z,98001.81
2019-05-25T01:37:39.177Z,98000.00
2019-05-25T01:38:41.883Z,97995.97
2019-05-25T01:39:44.907Z,98000.05
2019-05-25T01:40:47.255Z,98000.55
2019-05-25T01:41:49.762Z,98004.45
2019-05-25T01:42:51.837Z,97996.20
2019-05-25T01:43:54.454Z,97998.53
2019-05-25T01:44:57.254Z,97996.92
2019-05-25T01:45:59.655Z,97995.85
2019-05-25T01:47:02.444Z,97997.52
2019-05-25T01:48:06.069Z,97998.22
2019-05-25T01:49:08.665Z,97996.02
2019-05-25T01:50:11.833Z,97995.27
2019-05-25T01:51:14.663Z,98001.05
2019-05-25T01:52:16.733Z,97995.84
2019-05-25T01:53:19.409Z,97996.02
2019-05-25T01:54:22.309Z,97995.16
2019-05-25T01:55:24.895Z,97994.66
2019-05-25T01:56:27.125Z,97998.77
2019-05-25T01:57:29.409Z,97996.92
2019-05-25T01:58:31.937Z,97998.94
2019-05-25T01:59:34.732Z,97997.66
2019-05-25T02:00:38.857Z,98000.31
2019-05-25T02:01:41.419Z,97997.34
2019-05-25T02:02:44.351Z,97999.98
2019-05-25T02:03:46.202Z,97998.92
2019-05-25T02:04:49.590Z,97995.59
2019-05-25T02:05:52.150Z,98002.16
2019-05-25T02:06:53.830Z,98000.46
2019-05-25T02:07:56.245Z,97996.71
2019-05-25T02:08:58.894Z,97999.41
2019-05-25T02:10:00.939Z,97997.11
2019-05-25T02:11:04.621Z,98000.83
2019-05-25T02:12:07.214Z,97996.39
2019-05-25T02:13:09.895Z,97996.45
2019-05-25T02:14:13.138Z,97996.87
2019-05-25T02:15:15.875Z,97996.91
2019-05-25T02:16:18.423Z,97999.27
2019-05-25T02:17:22.178Z,97995.37
2019-05-25T02:18:24.661Z,97992.09
2019-05-25T02:19:27.382Z,98000.97
2019-05-25T02:20:30.496Z,97998.00
2019-05-25T02:21:32.847Z,98000.02
2019-05-25T02:22:34.534Z,97994.39
2019-05-25T02:23:37.128Z,97995.67
2019-05-25T02:24:39.925Z,97995.64
2019-05-25T02:25:42.196Z,98001.42
2019-05-25T02:26:44.754Z,97996.30
2019-05-25T02:27:46.540Z,97995.00
2019-05-25T02:28:49.261Z,98001.86
2019-05-25T02:29:51.829Z,97998.91
2019-05-25T02:30:54.202Z,97998.58
2019-05-25T02:31:57.121Z,97996.08
2019-05-25T02:33:01.683Z,97999.34
2019-05-25T02:34:06.169Z,98001.95
2019-05-25T02:35:16.511Z,98000.38
2019-05-25T02:36:20.729Z,97998.88
2019-05-25T02:37:23.166Z,98000.20
2019-05-25T02:38:26.110Z,97996.75
2019-05-25T02:39:27.806Z,97996.91
2019-05-25T02:40:30.801Z,98007.09
2019-05-25T02:41:33.076Z,98000.16
2019-05-25T02:42:35.282Z,97999.65
2019-05-25T02:43:37.825Z,98001.48
2019-05-25T02:44:40.486Z,98003.19
2019-05-25T02:45:42.910Z,98009.20
2019-05-25T02:46:45.383Z,98005.16
2019-05-25T02:47:48.802Z,98008.70
2019-05-25T02:48:51.710Z,98009.54
2019-05-25T02:49:54.175Z,98008.72
2019-05-25T02:50:57.309Z,98013.07
2019-05-25T02:52:00.741Z,98017.80
2019-05-25T02:53:03.439Z,98011.87
2019-05-25T02:54:07.653Z,98010.95
2019-05-25T02:55:10.884Z,98020.14
2019-05-25T02:56:14.079Z,98013.36
2019-05-25T02:57:16.434Z,98017.77
2019-05-25T02:58:19.280Z,98009.63
2019-05-25T02:59:23.193Z,98022.38
2019-05-25T03:00:31.001Z,98017.11
2019-05-25T03:01:34.007Z,98012.27
2019-05-25T03:02:36.627Z,98019.05
2019-05-25T03:03:38.702Z,98019.48
2019-05-25T03:04:41.070Z,98016.12
2019-05-25T03:05:45.078Z,98017.65
2019-05-25T03:06:48.025Z,98020.25
2019-05-25T03:07:51.069Z,98022.38
2019-05-25T03:08:55.747Z,98023.52
2019-05-25T03:09:59.748Z,98025.82
2019-05-25T03:11:03.140Z,98023.95
2019-05-25T03:12:06.551Z,98027.47
2019-05-25T03:13:08.803Z,98025.28
2019-05-25T03:14:11.107Z,98024.34
2019-05-25T03:15:14.781Z,98023.11
2019-05-25T03:16:17.785Z,98024.67
2019-05-25T03:17:22.285Z,98024.86
2019-05-25T03:18:24.717Z,98023.88
2019-05-25T03:19:27.625Z,98025.80
2019-05-25T03:20:30.397Z,98024.96
2019-05-25T03:21:32.845Z,98025.06
2019-05-25T03:22:35.307Z,98026.52
2019-05-25T03:23:37.567Z,98023.79
2019-05-25T03:24:39.821Z,98027.73
2019-05-25T03:25:49.515Z,98028.67
2019-05-25T03:26:46.787Z,98027.97
2019-05-25T03:27:49.786Z,98025.99
2019-05-25T03:28:52.635Z,98030.05
2019-05-25T03:29:54.983Z,98031.54
2019-05-25T03:30:57.019Z,98026.83
2019-05-25T03:31:59.466Z,98033.98
2019-05-25T03:33:02.815Z,98026.92
2019-05-25T03:34:05.501Z,98031.41
2019-05-25T03:35:08.059Z,98029.66
2019-05-25T03:36:11.025Z,98029.47
2019-05-25T03:37:13.238Z,98028.09
2019-05-25T03:38:15.823Z,98025.45
2019-05-25T03:39:18.336Z,98033.32
2019-05-25T03:40:20.311Z,98024.98
2019-05-25T03:41:23.031Z,98027.39
2019-05-25T03:42:25.288Z,98034.96
2019-05-25T03:43:27.698Z,98034.75
2019-05-25T03:44:30.608Z,98029.02
2019-05-25T03:45:33.504Z,98030.10
2019-05-25T03:46:37.190Z,98030.27
2019-05-25T03:47:39.734Z,98034.30
2019-05-25T03:48:42.118Z,98034.00
2019-05-25T03:49:46.180Z,98034.45
2019-05-25T03:50:48.634Z,98030.91
2019-05-25T03:51:50.873Z,98034.89
2019-05-25T03:52:53.882Z,98032.30
2019-05-25T03:53:56.626Z,98027.83
2019-05-25T03:54:59.624Z,98030.86
2019-05-25T03:56:05.731Z,98033.48
2019-05-25T03:57:07.481Z,98033.01
2019-05-25T03:58:09.495Z,98031.94
2019-05-25T03:59:12.306Z,98031.09
2019-05-25T04:00:19.588Z,98030.64
2019-05-25T04:01:22.323Z,98032.92
2019-05-25T04:02:24.989Z,98036.58
2019-05-25T04:03:27.648Z,98031.72
2019-05-25T04:04:30.237Z,98038.19
2019-05-25T04:05:33.400Z,98036.36
2019-05-25T04:06:35.793Z,98034.86
2019-05-25T04:07:38.306Z,98044.00
2019-05-25T04:08:40.579Z,98044.52
2019-05-25T04:09:42.297Z,98038.78
2019-05-25T04:10:44.586Z,98040.94
2019-05-25T04:11:47.729Z,98043.80
2019-05-25T04:12:49.758Z,98047.05
2019-05-25T04:13:52.412Z,98035.37
2019-05-25T04:14:56.187Z,98037.83
2019-05-25T04:16:00.349Z,98041.27
2019-05-25T04:17:03.175Z,98044.95
2019-05-25T04:18:06.167Z,98039.17
2019-05-25T04:19:08.359Z,98043.88
2019-05-25T04:20:10.951Z,98044.54
2019-05-25T04:21:14.415Z,98052.78
2019-05-25T04:22:16.629Z,98042.11
2019-05-25T04:23:18.981Z,98047.48
2019-05-25T04:24:22.619Z,98050.47
2019-05-25T04:25:24.307Z,98047.50
2019-05-25T04:26:27.661Z,98046.01
2019-05-25T04:27:29.536Z,98048.43
2019-05-25T04:28:31.565Z,98051.00
2019-05-25T04:29:34.072Z,98052.02
2019-05-25T04:30:36.444Z,98049.67
2019-05-25T04:31:38.799Z,98054.62
2019-05-25T04:32:41.185Z,98047.19
2019-05-25T04:33:43.201Z,98048.10
2019-05-25T04:34:45.756Z,98051.58
2019-05-25T04:35:48.808Z,98049.56
2019-05-25T04:36:51.948Z,98047.23
2019-05-25T04:37:54.680Z,98046.12
2019-05-25T04:38:57.489Z,98046.16
2019-05-25T04:40:05.386Z,98049.96
2019-05-25T04:41:08.234Z,98050.20
2019-05-25T04:42:11.020Z,98050.95
2019-05-25T04:43:13.222Z,98052.09
2019-05-25T04:44:17.682Z,98048.70
2019-05-25T04:45:20.087Z,98053.17
2019-05-25T04:46:22.615Z,98050.29
2019-05-25T04:47:27.118Z,98048.31
2019-05-25T04:48:28.930Z,98051.13
2019-05-25T04:49:31.359Z,98049.75
2019-05-25T04:50:33.821Z,98059.45
2019-05-25T04:51:36.122Z,98056.48
2019-05-25T04:52:41.079Z,98052.29
2019-05-25T04:53:43.222Z,98051.38
2019-05-25T04:54:46.216Z,98056.13
2019-05-25T04:55:49.080Z,98060.41
2019-05-25T04:56:51.492Z,98059.48
2019-05-25T04:57:55.302Z,98057.33
2019-05-25T04:58:58.072Z,98055.45
2019-05-25T05:00:00.882Z,98056.99
2019-05-25T05:01:02.903Z,98063.06
2019-05-25T05:02:06.135Z,98059.47
2019-05-25T05:03:08.864Z,98061.89
2019-05-25T05:04:10.623Z,98062.11
2019-05-25T05:05:14.057Z,98062.20
2019-05-25T05:06:16.624Z,98071.62
2019-05-25T05:07:19.694Z,98058.34
2019-05-25T05:08:25.086Z,98066.79
2019-05-25T05:09:26.806Z,98065.36
2019-05-25T05:10:29.330Z,98068.86
2019-05-25T05:11:31.834Z,98066.13
2019-05-25T05:12:34.999Z,98064.18
2019-05-25T05:13:37.365Z,98063.80
2019-05-25T05:14:41.088Z,98063.83
2019-05-25T05:15:43.362Z,98063.84
2019-05-25T05:16:45.726Z,98064.81
2019-05-25T05:17:48.708Z,98073.95
2019-05-25T05:18:50.541Z,98073.27
2019-05-25T05:19:52.815Z,98075.16
2019-05-25T05:20:55.405Z,98077.33
2019-05-25T05:21:57.854Z,98073.98
2019-05-25T05:23:02.189Z,98074.58
2019-05-25T05:24:04.833Z,98075.30
2019-05-25T05:25:08.626Z,98077.28
2019-05-25T05:26:12.109Z,98073.34
2019-05-25T05:27:15.940Z,98074.46
2019-05-25T05:28:18.367Z,98078.56
2019-05-25T05:29:20.641Z,98082.84
2019-05-25T05:30:33.377Z,98082.81
2019-05-25T05:31:35.907Z,98080.93
2019-05-25T05:32:40.105Z,98080.24
2019-05-25T05:33:42.573Z,98087.85
2019-05-25T05:34:45.805Z,98082.66
2019-05-25T05:35:49.100Z,98082.91
2019-05-25T05:36:52.229Z,98089.40
2019-05-25T05:37:57.241Z,98090.19
2019-05-25T05:39:00.379Z,98085.09
2019-05-25T05:40:06.962Z,98087.58
2019-05-25T05:41:13.360Z,98078.05
2019-05-25T05:42:17.398Z,98082.69
2019-05-25T05:43:20.852Z,98081.23
2019-05-25T05:44:25.342Z,98083.06
2019-05-25T05:45:30.306Z,98082.10
2019-05-25T05:46:36.128Z,98086.48
2019-05-25T05:47:40.098Z,98088.77
2019-05-25T05:48:46.102Z,98085.73
2019-05-25T05:49:50.685Z,98083.78
2019-05-25T05:50:57.189Z,98085.09
2019-05-25T05:52:02.216Z,98084.79
2019-05-25T05:53:05.052Z,98082.21
2019-05-25T05:54:07.847Z,98090.44
2019-05-25T05:55:11.474Z,98087.76
2019-05-25T05:56:15.802Z,98084.20
2019-05-25T05:57:18.492Z,98081.22
2019-05-25T05:58:21.236Z,98081.70
2019-05-25T05:59:23.564Z,98086.84
2019-05-25T06:00:26.218Z,98084.25
2019-05-25T06:01:28.191Z,98091.93
2019-05-25T06:02:30.648Z,98084.23
2019-05-25T06:03:32.352Z,98077.16
2019-05-25T06:04:34.676Z,98086.88
2019-05-25T06:05:39.210Z,98083.42
2019-05-25T06:06:43.635Z,98085.25
2019-05-25T06:07:46.009Z,98081.13
2019-05-25T06:08:48.303Z,98081.13
2019-05-25T06:09:50.680Z,98082.61
2019-05-25T06:10:53.162Z,98080.29
2019-05-25T06:11:55.827Z,98083.60
2019-05-25T06:12:58.644Z,98079.48
2019-05-25T06:14:03.504Z,98083.44
2019-05-25T06:15:06.667Z,98079.13
2019-05-25T06:16:11.143Z,98082.58
2019-05-25T06:17:14.398Z,98085.55
2019-05-25T06:18:16.227Z,98082.62
2019-05-25T06:19:18.401Z,98081.11
2019-05-25T06:20:23.302Z,98090.19
2019-05-25T06:21:26.035Z,98084.22
2019-05-25T06:22:28.488Z,98085.56
2019-05-25T06:23:31.103Z,98084.90
2019-05-25T06:24:33.451Z,98091.83
2019-05-25T06:25:35.991Z,98088.52
2019-05-25T06:26:38.247Z,98091.48
2019-05-25T06:27:41.183Z,98080.58
2019-05-25T06:28:44.092Z,98084.55
2019-05-25T06:29:46.939Z,98079.91
2019-05-25T06:30:49.338Z,98089.16
2019-05-25T06:31:52.107Z,98088.70
2019-05-25T06:32:54.763Z,98089.00
2019-05-25T06:33:58.111Z,98080.59
2019-05-25T06:35:00.965Z,98085.67
2019-05-25T06:36:03.774Z,98085.52
2019-05-25T06:37:06.258Z,98083.88
2019-05-25T06:38:09.022Z,98085.19
2019-05-25T06:39:12.530Z,98085.16
2019-05-25T06:40:14.825Z,98085.10
2019-05-25T06:41:18.209Z,98082.18
2019-05-25T06:42:20.757Z,98080.92
2019-05-25T06:43:22.709Z,98079.80
2019-05-25T06:44:27.545Z,98084.36
2019-05-25T06:45:31.043Z,98088.48
2019-05-25T06:46:32.697Z,98089.38
2019-05-25T06:47:36.643Z,98083.78
2019-05-25T06:48:39.300Z,98080.33
2019-05-25T06:49:40.983Z,98087.27
2019-05-25T06:50:43.994Z,98078.80
2019-05-25T06:51:47.387Z,98079.60
2019-05-25T06:52:50.488Z,98082.75
2019-05-25T06:53:52.751Z,98088.01
2019-05-25T06:54:57.024Z,98091.70
2019-05-25T06:55:59.776Z,98101.82
2019-05-25T06:57:03.402Z,98091.34
2019-05-25T06:58:05.576Z,98082.77
2019-05-25T06:59:07.884Z,98090.39
2019-05-25T07:00:11.100Z,98092.20
2019-05-25T07:01:13.784Z,98086.58
2019-05-25T07:02:16.197Z,98089.32
2019-05-25T07:03:18.179Z,98090.79
2019-05-25T07:04:20.933Z,98092.90
2019-05-25T07:05:23.516Z,98098.15
2019-05-25T07:06:28.745Z,98096.67
2019-05-25T07:07:31.558Z,98093.20
2019-05-25T07:08:34.411Z,98102.48
2019-05-25T07:09:37.077Z,98099.53
2019-05-25T07:10:40.037Z,98102.89
2019-05-25T07:11:42.459Z,98101.03
2019-05-25T07:12:44.945Z,98098.25
2019-05-25T07:13:47.878Z,98095.44
2019-05-25T07:14:50.315Z,98090.88
2019-05-25T07:15:52.049Z,98087.83
2019-05-25T07:16:54.648Z,98097.38
2019-05-25T07:17:57.023Z,98093.71
2019-05-25T07:18:59.147Z,98092.67
2019-05-25T07:20:03.761Z,98089.95
2019-05-25T07:21:06.554Z,98090.73
2019-05-25T07:22:10.563Z,98091.45
2019-05-25T07:23:14.219Z,98092.92
2019-05-25T07:24:17.003Z,98089.11
2019-05-25T07:25:20.245Z,98095.27
2019-05-25T07:26:24.713Z,98091.91
2019-05-25T07:27:27.265Z,98098.16
2019-05-25T07:28:29.512Z,98096.98
2019-05-25T07:29:32.447Z,98096.28
2019-05-25T07:30:34.955Z,98097.58
2019-05-25T07:31:38.673Z,98098.06
2019-05-25T07:32:41.179Z,98106.47
2019-05-25T07:33:44.462Z,98103.60
2019-05-25T07:34:47.338Z,98107.47
2019-05-25T07:35:49.970Z,98108.30
2019-05-25T07:36:52.268Z,98106.00
2019-05-25T07:37:55.281Z,98100.06
2019-05-25T07:38:57.777Z,98101.78
2019-05-25T07:40:00.764Z,98111.75
2019-05-25T07:41:03.536Z,98103.20
2019-05-25T07:42:06.450Z,98096.34
2019-05-25T07:43:08.904Z,98108.28
2019-05-25T07:44:11.408Z,98101.05
2019-05-25T07:45:14.858Z,98109.38
2019-05-25T07:46:17.375Z,98113.24
2019-05-25T07:47:21.872Z,98101.85
2019-05-25T07:48:25.676Z,98103.40
2019-05-25T07:49:28.027Z,98103.30
2019-05-25T07:50:32.210Z,98104.06
2019-05-25T07:51:34.842Z,98108.13
2019-05-25T07:52:37.335Z,98100.78
2019-05-25T07:53:39.880Z,98104.38
2019-05-25T07:54:41.596Z,98102.28
2019-05-25T07:55:44.553Z,98107.41
2019-05-25T07:56:47.545Z,98116.02
2019-05-25T07:57:51.350Z,98106.01
2019-05-25T07:58:54.102Z,98114.59
2019-05-25T07:59:56.852Z,98113.48
2019-05-25T08:00:58.791Z,98110.41
2019-05-25T08:02:01.863Z,98110.98
2019-05-25T08:03:04.682Z,98121.27
2019-05-25T08:04:07.289Z,98116.82
2019-05-25T08:05:09.923Z,98119.94
2019-05-25T08:06:12.846Z,98121.61
2019-05-25T08:07:14.818Z,98108.92
2019-05-25T08:08:17.306Z,98118.89
2019-05-25T08:09:23.736Z,98110.08
2019-05-25T08:10:26.189Z,98101.84
2019-05-25T08:11:28.668Z,98107.35
2019-05-25T08:12:31.168Z,98113.94
2019-05-25T08:13:33.984Z,98123.30
2019-05-25T08:14:36.963Z,98114.27
2019-05-25T08:15:39.544Z,98114.49
2019-05-25T08:16:42.399Z,98113.05
2019-05-25T08:17:44.933Z,98117.16
2019-05-25T08:18:48.091Z,98118.21
2019-05-25T08:19:50.632Z,98125.53
2019-05-25T08:20:56.285Z,98115.73
2019-05-25T08:21:59.185Z,98111.52
2019-05-25T08:23:02.598Z,98107.14
2019-05-25T08:24:06.599Z,98112.42
2019-05-25T08:25:10.933Z,98112.11
2019-05-25T08:26:13.654Z,98104.50
2019-05-25T08:27:17.348Z,98115.62
2019-05-25T08:28:32.348Z,98110.32
2019-05-25T08:29:26.927Z,98114.99
2019-05-25T08:30:31.390Z,98110.47
2019-05-25T08:31:33.661Z,98111.95
2019-05-25T08:32:37.645Z,98104.00
2019-05-25T08:33:41.895Z,98102.43
2019-05-25T08:34:44.359Z,98108.33
2019-05-25T08:35:47.532Z,98106.20
2019-05-25T08:36:50.634Z,98108.27
2019-05-25T08:37:54.817Z,98117.55
2019-05-25T08:38:57.143Z,98105.24
2019-05-25T08:39:59.043Z,98104.10
2019-05-25T08:41:01.611Z,98108.96
2019-05-25T08:42:06.058Z,98104.58
2019-05-25T08:43:09.550Z,98104.70
2019-05-25T08:44:12.477Z,98098.20
2019-05-25T08:45:15.941Z,98107.73
2019-05-25T08:46:21.460Z,98104.98
2019-05-25T08:47:24.301Z,98110.56
2019-05-25T08:48:27.500Z,98115.85
2019-05-25T08:49:29.395Z,98104.73
2019-05-25T08:50:38.355Z,98109.76
2019-05-25T08:51:36.930Z,98107.80
2019-05-25T08:52:41.513Z,98110.53
2019-05-25T08:53:46.570Z,98107.73
2019-05-25T08:54:48.377Z,98100.44
2019-05-25T08:55:51.129Z,98102.56
2019-05-25T08:56:53.727Z,98113.39
2019-05-25T08:57:56.714Z,98106.89
2019-05-25T08:58:59.457Z,98097.11
2019-05-25T09:00:04.516Z,98107.34
2019-05-25T09:01:07.221Z,98104.93
2019-05-25T09:02:11.177Z,98113.19
2019-05-25T09:03:13.904Z,98106.95
2019-05-25T09:04:16.286Z,98104.55
2019-05-25T09:05:19.740Z,98095.34
2019-05-25T09:06:24.387Z,98103.48
2019-05-25T09:07:26.786Z,98117.25
2019-05-25T09:08:29.112Z,98110.34
2019-05-25T09:09:32.155Z,98106.41
2019-05-25T09:10:34.856Z,98112.61
2019-05-25T09:11:37.802Z,98115.73
2019-05-25T09:12:43.176Z,98105.52
2019-05-25T09:13:45.741Z,98107.59
2019-05-25T09:14:48.379Z,98097.73
2019-05-25T09:15:50.640Z,98105.12
2019-05-25T09:16:53.110Z,98109.10
2019-05-25T09:17:55.759Z,98112.14
2019-05-25T09:18:58.207Z,98108.74
2019-05-25T09:20:01.069Z,98106.69
2019-05-25T09:21:03.884Z,98107.03
2019-05-25T09:22:06.309Z,98104.69
2019-05-25T09:23:09.506Z,98099.46
2019-05-25T09:24:12.843Z,98119.78
2019-05-25T09:25:16.031Z,98104.38
2019-05-25T09:26:19.423Z,98102.95
2019-05-25T09:27:21.818Z,98108.02
2019-05-25T09:28:23.722Z,98099.91
2019-05-25T09:29:26.294Z,98093.14
2019-05-25T09:30:29.112Z,98096.77
2019-05-25T09:31:30.993Z,98092.34
2019-05-25T09:32:33.572Z,98098.00
2019-05-25T09:33:37.001Z,98089.11
2019-05-25T09:34:39.779Z,98093.84
2019-05-25T09:35:43.456Z,98091.72
2019-05-25T09:36:46.106Z,98092.11
2019-05-25T09:37:49.407Z,98089.72
2019-05-25T09:38:52.249Z,98093.39
2019-05-25T09:39:55.229Z,98089.59
2019-05-25T09:40:59.788Z,98092.55
2019-05-25T09:42:02.887Z,98094.09
2019-05-25T09:43:05.179Z,98094.14
2019-05-25T09:44:10.488Z,98093.39
2019-05-25T09:45:14.310Z,98091.49
2019-05-25T09:46:16.880Z,98101.41
2019-05-25T09:47:19.557Z,98101.45
2019-05-25T09:48:22.707Z,98097.82
2019-05-25T09:49:26.347Z,98096.09
2019-05-25T09:50:29.062Z,98101.30
2019-05-25T09:51:31.447Z,98098.03
2019-05-25T09:52:35.527Z,98096.05
2019-05-25T09:53:39.700Z,98100.69
2019-05-25T09:54:41.760Z,98099.48
2019-05-25T09:55:47.105Z,98098.95
2019-05-25T09:56:50.781Z,98098.18
2019-05-25T09:57:52.744Z,98098.98
2019-05-25T09:58:55.145Z,98105.18
2019-05-25T09:59:58.382Z,98109.45
2019-05-25T10:01:00.371Z,98104.93
2019-05-25T10:02:04.425Z,98104.81
2019-05-25T10:03:07.538Z,98102.63
2019-05-25T10:04:11.735Z,98095.43
2019-05-25T10:05:14.546Z,98102.75
2019-05-25T10:06:17.411Z,98103.66
2019-05-25T10:07:19.289Z,98109.95
2019-05-25T10:08:21.920Z,98111.59
2019-05-25T10:09:24.504Z,98102.87
2019-05-25T10:10:26.434Z,98102.72
2019-05-25T10:11:30.012Z,98098.22
2019-05-25T10:12:33.325Z,98101.97
2019-05-25T10:13:36.492Z,98102.53
2019-05-25T10:14:40.406Z,98097.84
2019-05-25T10:15:42.554Z,98112.32
2019-05-25T10:16:47.284Z,98106.90
2019-05-25T10:17:50.512Z,98102.79
2019-05-25T10:18:52.984Z,98106.80
2019-05-25T10:19:55.693Z,98102.80
2019-05-25T10:20:58.565Z,98098.42
2019-05-25T10:22:01.291Z,98103.63
2019-05-25T10:23:03.718Z,98101.66
2019-05-25T10:24:06.286Z,98089.80
2019-05-25T10:25:10.359Z,98097.02
2019-05-25T10:26:13.393Z,98095.09
2019-05-25T10:27:15.662Z,98098.25
2019-05-25T10:28:19.144Z,98113.22
2019-05-25T10:29:36.693Z,98106.57
2019-05-25T10:30:28.814Z,98116.80
2019-05-25T10:31:31.953Z,98108.29
2019-05-25T10:32:35.361Z,98099.25
2019-05-25T10:33:37.172Z,98104.55
2019-05-25T10:34:44.118Z,98098.34
2019-05-25T10:35:48.410Z,98110.70
2019-05-25T10:36:50.214Z,98106.92
2019-05-25T10:37:53.395Z,98099.42
2019-05-25T10:38:55.662Z,98101.15
2019-05-25T10:39:57.965Z,98091.07
2019-05-25T10:41:00.466Z,98096.95
2019-05-25T10:42:03.461Z,98095.28
2019-05-25T10:43:06.758Z,98090.27
2019-05-25T10:44:11.121Z,98090.82
2019-05-25T10:45:14.767Z,98103.45
2019-05-25T10:46:17.708Z,98096.33
2019-05-25T10:47:20.606Z,98090.97
2019-05-25T10:48:23.190Z,98086.20
2019-05-25T10:49:29.395Z,98091.46
2019-05-25T10:50:33.647Z,98085.70
2019-05-25T10:51:36.120Z,98084.73
2019-05-25T10:52:38.223Z,98088.77
2019-05-25T10:53:40.921Z,98086.90
2019-05-25T10:54:43.039Z,98088.59
2019-05-25T10:55:45.469Z,98091.16
2019-05-25T10:56:48.970Z,98099.62
2019-05-25T10:57:54.285Z,98094.96
2019-05-25T10:58:59.070Z,98093.29
2019-05-25T11:00:03.916Z,98097.76
2019-05-25T11:01:06.783Z,98085.97
2019-05-25T11:02:11.730Z,98090.25
2019-05-25T11:03:14.373Z,98081.53
2019-05-25T11:04:16.343Z,98081.20
2019-05-25T11:05:19.496Z,98086.45
2019-05-25T11:06:22.169Z,98079.19
2019-05-25T11:07:24.324Z,98091.86
2019-05-25T11:08:26.883Z,98091.34
2019-05-25T11:09:29.825Z,98087.58
2019-05-25T11:10:32.494Z,98079.73
2019-05-25T11:11:35.129Z,98086.38
2019-05-25T11:12:41.366Z,98088.67
2019-05-25T11:13:45.063Z,98073.91
2019-05-25T11:14:47.690Z,98082.81
2019-05-25T11:15:49.764Z,98096.46
2019-05-25T11:16:52.253Z,98088.19
2019-05-25T11:17:57.245Z,98080.02
2019-05-25T11:18:59.696Z,98079.14
2019-05-25T11:20:07.007Z,98081.90
2019-05-25T11:21:09.925Z,98081.14
2019-05-25T11:22:12.241Z,98073.66
2019-05-25T11:23:14.630Z,98074.39
2019-05-25T11:24:19.767Z,98074.73
2019-05-25T11:25:22.221Z,98081.50
2019-05-25T11:26:25.790Z,98078.61
2019-05-25T11:27:28.372Z,98071.84
2019-05-25T11:28:30.227Z,98061.91
2019-05-25T11:29:32.948Z,98064.18
2019-05-25T11:30:34.963Z,98071.63
2019-05-25T11:31:37.706Z,98081.61
2019-05-25T11:32:40.395Z,98077.59
2019-05-25T11:33:42.188Z,98069.42
2019-05-25T11:34:47.162Z,98067.10
2019-05-25T11:35:50.052Z,98067.23
2019-05-25T11:36:53.462Z,98065.63
2019-05-25T11:37:56.375Z,98065.43
2019-05-25T11:38:59.055Z,98069.30
2019-05-25T11:40:07.463Z,98073.89
2019-05-25T11:41:10.885Z,98063.39
2019-05-25T11:42:14.305Z,98067.88
2019-05-25T11:43:16.205Z,98074.13
2019-05-25T11:44:19.367Z,98061.03
2019-05-25T11:45:24.291Z,98065.71
2019-05-25T11:46:26.782Z,98073.63
2019-05-25T11:47:29.417Z,98068.06
2019-05-25T11:48:31.311Z,98069.33
2019-05-25T11:49:33.991Z,98064.65
2019-05-25T11:50:36.459Z,98067.13
2019-05-25T11:51:38.801Z,98068.00
2019-05-25T11:52:41.488Z,98069.06
2019-05-25T11:53:45.625Z,98062.78
2019-05-25T11:54:47.373Z,98061.26
2019-05-25T11:55:50.277Z,98067.01
2019-05-25T11:56:53.185Z,98051.63
2019-05-25T11:57:56.003Z,98049.86
2019-05-25T11:59:01.761Z,98053.30
2019-05-25T12:00:23.753Z,98049.49
2019-05-25T12:01:15.957Z,98056.80
2019-05-25T12:02:18.505Z,98052.48
2019-05-25T12:03:21.012Z,98046.67
2019-05-25T12:04:23.389Z,98043.91
2019-05-25T12:05:25.903Z,98046.27
2019-05-25T12:06:28.955Z,98042.48
2019-05-25T12:07:31.511Z,98044.63
2019-05-25T12:08:33.765Z,98041.34
2019-05-25T12:09:36.465Z,98048.63
2019-05-25T12:10:41.789Z,98048.11
2019-05-25T12:11:44.607Z,98056.91
2019-05-25T12:12:47.173Z,98044.92
2019-05-25T12:13:50.638Z,98046.58
2019-05-25T12:14:53.372Z,98037.12
2019-05-25T12:15:55.802Z,98036.42
2019-05-25T12:16:59.661Z,98052.53
2019-05-25T12:18:02.801Z,98048.73
2019-05-25T12:19:04.944Z,98053.11
2019-05-25T12:20:08.440Z,98046.87